createdAt,value
2022-07-30T00:00:24.763Z,14
2022-07-30T00:05:21.197Z,14
2022-07-30T00:10:25.726Z,13.9
2022-07-30T00:15:30.233Z,13.8
2022-07-30T00:20:34.791Z,13.8
2022-07-30T00:25:38.333Z,13.7
2022-07-30T00:30:42.918Z,13.7
2022-07-30T00:35:47.405Z,13.7
2022-07-30T00:40:50.970Z,13.8
2022-07-30T00:45:55.554Z,13.9
2022-07-30T00:50:59.999Z,14
2022-07-30T00:56:03.546Z,13.9
2022-07-30T01:01:08.172Z,13.9
2022-07-30T01:06:14.221Z,13.9
2022-07-30T01:11:16.181Z,13.9
2022-07-30T01:16:20.759Z,14
2022-07-30T01:21:24.281Z,14
2022-07-30T01:26:28.803Z,14
2022-07-30T01:31:33.436Z,14
2022-07-30T01:36:36.891Z,14
2022-07-30T01:41:41.444Z,13.9
2022-07-30T01:46:45.958Z,13.8
2022-07-30T01:51:49.490Z,13.7
2022-07-30T01:56:54.043Z,13.8
2022-07-30T02:01:58.576Z,13.8
2022-07-30T02:07:03.553Z,13.9
2022-07-30T02:12:06.658Z,14
2022-07-30T02:17:18.929Z,14
2022-07-30T02:22:15.696Z,14
2022-07-30T02:27:19.237Z,14
2022-07-30T02:32:23.794Z,14
2022-07-30T02:37:41.588Z,14
2022-07-30T02:42:31.893Z,14
2022-07-30T02:47:36.429Z,14.1
2022-07-30T02:52:40.948Z,14
2022-07-30T02:57:44.530Z,14
2022-07-30T03:02:49.096Z,14
2022-07-30T03:07:53.536Z,14
2022-07-30T03:12:58.091Z,13.9
2022-07-30T03:18:01.636Z,13.9
2022-07-30T03:23:06.174Z,13.8
2022-07-30T03:28:10.672Z,13.8
2022-07-30T03:33:14.287Z,13.8
2022-07-30T03:38:18.758Z,13.8
2022-07-30T03:43:33.602Z,13.7
2022-07-30T03:48:26.877Z,13.8
2022-07-30T03:53:31.420Z,13.7
2022-07-30T03:58:36.257Z,13.8
2022-07-30T04:03:39.581Z,13.8
2022-07-30T04:08:44.039Z,13.8
2022-07-30T04:13:48.513Z,13.8
2022-07-30T04:18:53.051Z,13.7
2022-07-30T04:24:03.600Z,13.7
2022-07-30T04:29:01.189Z,13.8
2022-07-30T04:34:05.714Z,13.8
2022-07-30T04:39:09.207Z,13.7
2022-07-30T04:44:13.787Z,13.7
2022-07-30T04:49:18.337Z,13.7
2022-07-30T04:54:21.849Z,13.8
2022-07-30T04:59:26.414Z,13.8
2022-07-30T05:04:30.934Z,13.8
2022-07-30T05:09:34.458Z,13.9
2022-07-30T05:14:38.998Z,13.9
2022-07-30T05:19:43.527Z,13.9
2022-07-30T05:24:48.035Z,13.9
2022-07-30T05:29:51.635Z,13.9
2022-07-30T05:34:55.194Z,13.9
2022-07-30T05:40:03.226Z,13.9
2022-07-30T05:45:04.216Z,14.2
2022-07-30T05:50:07.777Z,14.3
2022-07-30T05:55:12.317Z,14.5
2022-07-30T06:00:16.838Z,14.7
2022-07-30T06:05:21.412Z,14.4
2022-07-30T06:10:24.925Z,14.3
2022-07-30T06:15:29.465Z,14.3
2022-07-30T06:20:34.013Z,14.5
2022-07-30T06:25:37.548Z,14.6
2022-07-30T06:30:42.135Z,14.6
2022-07-30T06:35:46.629Z,14.9
2022-07-30T06:40:50.149Z,15.2
2022-07-30T06:45:54.785Z,15.8
2022-07-30T06:50:59.231Z,15.9
2022-07-30T06:56:02.796Z,15.6
2022-07-30T07:01:11.282Z,15.6
2022-07-30T07:06:11.861Z,15.7
2022-07-30T07:11:16.407Z,15.8
2022-07-30T07:16:19.977Z,16.3
2022-07-30T07:21:24.475Z,16.3
2022-07-30T07:26:29.024Z,16.8
2022-07-30T07:32:06.178Z,16.2
2022-07-30T07:36:37.129Z,16.8
2022-07-30T07:41:48.803Z,17
2022-07-30T07:46:45.270Z,17
2022-07-30T07:51:49.705Z,16.5
2022-07-30T07:56:54.227Z,17.7
2022-07-30T08:01:58.058Z,17.5
2022-07-30T08:07:02.863Z,17.7
2022-07-30T08:12:06.850Z,16.8
2022-07-30T08:17:11.548Z,17.4
2022-07-30T08:22:14.950Z,18.1
2022-07-30T08:27:19.484Z,16.7
2022-07-30T08:32:24.018Z,17.3
2022-07-30T08:37:27.608Z,17.9
2022-07-30T08:42:32.121Z,18.4
2022-07-30T08:47:36.685Z,17.6
2022-07-30T08:52:40.211Z,18.1
2022-07-30T08:57:44.756Z,17.5
2022-07-30T09:02:49.262Z,17
2022-07-30T09:07:52.833Z,16.2
2022-07-30T09:12:57.391Z,17
2022-07-30T09:18:01.985Z,17.4
2022-07-30T09:23:06.459Z,16.3
2022-07-30T09:28:15.687Z,17.5
2022-07-30T09:33:14.536Z,17.9
2022-07-30T09:38:19.107Z,17.1
2022-07-30T09:43:27.533Z,17.1
2022-07-30T09:48:26.342Z,17.6
2022-07-30T09:53:30.722Z,17.6
2022-07-30T09:58:35.254Z,17.6
2022-07-30T10:03:41.985Z,18.2
2022-07-30T10:08:46.277Z,16.9
2022-07-30T10:13:47.884Z,16.1
2022-07-30T10:18:52.440Z,16.2
2022-07-30T10:23:55.985Z,18.3
2022-07-30T10:29:00.533Z,17.4
2022-07-30T10:34:05.058Z,16.5
2022-07-30T10:39:08.627Z,16.9
2022-07-30T10:44:13.150Z,16.1
2022-07-30T10:49:19.048Z,16.4
2022-07-30T10:54:21.210Z,16.9
2022-07-30T10:59:28.950Z,17
2022-07-30T11:04:30.288Z,17.3
2022-07-30T11:09:34.856Z,17.5
2022-07-30T11:14:38.413Z,17.1
2022-07-30T11:19:56.106Z,17.5
2022-07-30T11:24:47.546Z,17.8
2022-07-30T11:29:51.622Z,17.3
2022-07-30T11:34:55.571Z,17
2022-07-30T11:40:00.086Z,16.2
2022-07-30T11:45:04.151Z,15.9
2022-07-30T11:50:08.186Z,16.1
2022-07-30T11:55:12.715Z,16.7
2022-07-30T12:00:16.280Z,15.5
2022-07-30T12:05:20.799Z,16.9
2022-07-30T12:10:27.030Z,17.4
2022-07-30T12:15:29.883Z,16.7
2022-07-30T12:20:33.414Z,15.3
2022-07-30T12:25:37.993Z,14.5
2022-07-30T12:30:42.544Z,14.9
2022-07-30T12:35:46.272Z,15
2022-07-30T12:40:50.602Z,15.2
2022-07-30T12:45:55.146Z,14.8
2022-07-30T12:50:58.676Z,14.4
2022-07-30T12:56:03.242Z,15.5
2022-07-30T13:01:07.834Z,15.8
2022-07-30T13:06:11.365Z,15.9
2022-07-30T13:11:15.869Z,15.9
2022-07-30T13:16:20.412Z,16.4
2022-07-30T13:21:24.940Z,16.5
2022-07-30T13:26:28.481Z,15.5
2022-07-30T13:31:43.145Z,15.7
2022-07-30T13:36:37.567Z,16.2
2022-07-30T13:41:41.124Z,15.9
2022-07-30T13:46:45.669Z,16.5
2022-07-30T13:51:50.241Z,14.4
2022-07-30T13:56:53.719Z,15.6
2022-07-30T14:01:58.349Z,16.3
2022-07-30T14:07:02.281Z,15.7
2022-07-30T14:12:06.371Z,15.7
2022-07-30T14:17:10.915Z,16
2022-07-30T14:22:14.535Z,16
2022-07-30T14:27:18.987Z,15.6
2022-07-30T14:32:23.564Z,16.6
2022-07-30T14:37:27.112Z,16.4
2022-07-30T14:42:31.610Z,16.2
2022-07-30T14:47:36.187Z,15.7
2022-07-30T14:52:39.710Z,16.6
2022-07-30T14:57:44.276Z,16
2022-07-30T15:02:48.802Z,16.7
2022-07-30T15:07:53.336Z,16
2022-07-30T15:12:56.887Z,16
2022-07-30T15:18:01.402Z,16.1
2022-07-30T15:23:08.433Z,15.3
2022-07-30T15:28:09.487Z,15.5
2022-07-30T15:33:14.054Z,16.5
2022-07-30T15:38:18.584Z,15.8
2022-07-30T15:43:22.122Z,15.7
2022-07-30T15:48:27.560Z,15.7
2022-07-30T15:53:31.305Z,16
2022-07-30T15:58:34.749Z,16.4
2022-07-30T16:03:39.290Z,16.5
2022-07-30T16:08:43.836Z,16.9
2022-07-30T16:13:48.353Z,16.2
2022-07-30T16:18:51.931Z,16
2022-07-30T16:23:56.485Z,16.4
2022-07-30T16:29:01.019Z,16.1
2022-07-30T16:34:04.592Z,16.3
2022-07-30T16:39:09.117Z,16.8
2022-07-30T16:44:13.666Z,16.1
2022-07-30T16:49:17.265Z,16.2
2022-07-30T16:54:21.716Z,15.9
2022-07-30T16:59:26.248Z,16.2
2022-07-30T17:04:29.819Z,15.9
2022-07-30T17:09:36.727Z,15.7
2022-07-30T17:14:38.883Z,15.3
2022-07-30T17:19:43.442Z,15.1
2022-07-30T17:24:46.974Z,15
2022-07-30T17:29:51.566Z,15.2
2022-07-30T17:34:56.037Z,15.7
2022-07-30T17:40:26.410Z,15.8
2022-07-30T17:45:04.141Z,15.5
2022-07-30T17:50:08.663Z,15.1
2022-07-30T17:55:12.248Z,15.1
2022-07-30T18:00:16.725Z,14.8
2022-07-30T18:05:21.284Z,14.8
2022-07-30T18:10:24.871Z,15
2022-07-30T18:15:29.375Z,14.8
2022-07-30T18:20:32.896Z,14.8
2022-07-30T18:25:53.348Z,14.9
2022-07-30T18:30:41.980Z,14.9
2022-07-30T18:35:45.536Z,14.9
2022-07-30T18:40:50.064Z,14.9
2022-07-30T18:45:54.661Z,15
2022-07-30T18:50:58.177Z,15
2022-07-30T18:56:02.764Z,14.9
2022-07-30T19:01:07.321Z,15.1
2022-07-30T19:06:11.793Z,15.1
2022-07-30T19:11:15.304Z,15
2022-07-30T19:16:19.852Z,15
2022-07-30T19:21:24.409Z,14.9
2022-07-30T19:26:27.966Z,14.7
2022-07-30T19:31:32.489Z,14.5
2022-07-30T19:36:37.019Z,14.6
2022-07-30T19:41:40.979Z,14.6
2022-07-30T19:46:45.094Z,14.6
2022-07-30T19:52:17.516Z,14.5
2022-07-30T19:56:53.188Z,14.5
2022-07-30T20:01:57.721Z,14.4
2022-07-30T20:07:02.275Z,14.4
2022-07-30T20:12:06.790Z,14.3
2022-07-30T20:17:10.317Z,14.4
2022-07-30T20:22:14.861Z,14.3
2022-07-30T20:27:37.173Z,14.2
2022-07-30T20:32:22.946Z,14.4
2022-07-30T20:37:27.765Z,14.3
2022-07-30T20:42:31.993Z,14.3
2022-07-30T20:47:38.389Z,14.3
2022-07-30T20:52:40.127Z,14.5
2022-07-30T20:58:02.798Z,14.5
2022-07-30T21:02:48.176Z,14.5
2022-07-30T21:07:53.137Z,14.5
2022-07-30T21:13:03.500Z,14.5
2022-07-30T21:18:02.097Z,14.5
2022-07-30T21:23:05.337Z,14.3
2022-07-30T21:28:09.856Z,14.3
2022-07-30T21:33:14.340Z,14.2
2022-07-30T21:38:17.926Z,14.2
2022-07-30T21:43:29.343Z,14.2
2022-07-30T21:48:27.256Z,14.2
2022-07-30T21:53:44.904Z,14.2
2022-07-30T21:58:35.050Z,14.1
2022-07-30T22:04:02.986Z,14.1
2022-07-30T22:08:43.157Z,14.1
2022-07-30T22:13:53.523Z,14.2
2022-07-30T22:18:52.270Z,14.1
2022-07-30T22:29:00.311Z,14
2022-07-30T22:34:03.856Z,14.1
2022-07-30T22:39:08.822Z,14
2022-07-30T22:44:13.149Z,14.1
2022-07-30T22:49:25.260Z,14.1
2022-07-30T22:54:20.996Z,14
2022-07-30T22:59:57.733Z,14.1
2022-07-30T23:04:30.086Z,14.1
2022-07-30T23:09:36.808Z,14
2022-07-30T23:12:33.211Z,14.1
2022-07-30T23:14:38.156Z,14
2022-07-30T23:19:42.686Z,14
2022-07-30T23:24:46.222Z,14
2022-07-30T23:29:50.780Z,14.1
2022-07-30T23:34:55.297Z,14
2022-07-30T23:39:58.850Z,14
2022-07-30T23:45:03.378Z,14
2022-07-30T23:50:07.930Z,13.9
2022-07-30T23:55:11.521Z,13.9
